
<gpx xmlns="http://www.topografix.com/GPX/1/1" xmlns:gpxx="http://www.garmin.com/xmlschemas/GpxExtensions/v3" xmlns:wptx1="http://www.garmin.com/xmlschemas/WaypointExtension/v1" xmlns:xsi="http://www.w3.org/2001/XMLSchema-instance" version="1.1" creator="Adze - https://getadze.com/" xsi:schemaLocation="http://www.topografix.com/GPX/1/1 http://www.topografix.com/GPX/1/1/gpx.xsd http://www.garmin.com/xmlschemas/GpxExtensions/v3 http://www8.garmin.com/xmlschemas/GpxExtensionsv3.xsd http://www.garmin.com/xmlschemas/WaypointExtension/v1 http://www8.garmin.com/xmlschemas/WaypointExtensionv1.xsd">
    <metadata>
        <name>Untitled Document</name>
        <link href="http://www.garmin.com"></link>
        <time>2018-03-06T07:38:47.782Z</time>
    </metadata>
    <wpt lon="101.867671" lat="14.141898">
        <ele>45.000000</ele>
        <name>Suan Nongnooch Prachinburi</name>
        <sym>Building</sym>
        <type>user</type>
        <extensions>
            <gpxx:WaypointExtension>
                <gpxx:DisplayMode>SymbolAndName</gpxx:DisplayMode>
            </gpxx:WaypointExtension>
            <wptx1:WaypointExtension>
                <wptx1:DisplayMode>SymbolAndName</wptx1:DisplayMode>
            </wptx1:WaypointExtension>
        </extensions>
    </wpt>
    <trk>
        <name>June 2007 - Sunday</name>
        <extensions>
            <gpxx:TrackExtension>
                <gpxx:DisplayColor>DarkGray</gpxx:DisplayColor>
            </gpxx:TrackExtension>
        </extensions>
        <trkseg>
            <trkpt lon="101.868839" lat="14.143224">
                <ele>30.418823</ele>
                <time>2007-07-01T03:04:06Z</time>
            </trkpt>
            <trkpt lon="101.868839" lat="14.143460">
                <ele>28.976929</ele>
                <time>2007-07-01T03:04:11Z</time>
            </trkpt>
            <trkpt lon="101.868775" lat="14.143631">
                <ele>28.976929</ele>
                <time>2007-07-01T03:04:15Z</time>
            </trkpt>
            <trkpt lon="101.868453" lat="14.143953">
                <ele>28.496216</ele>
                <time>2007-07-01T03:04:27Z</time>
            </trkpt>
            <trkpt lon="101.867938" lat="14.144039">
                <ele>28.015503</ele>
                <time>2007-07-01T03:04:40Z</time>
            </trkpt>
            <trkpt lon="101.867788" lat="14.144018">
                <ele>27.054321</ele>
                <time>2007-07-01T03:04:44Z</time>
            </trkpt>
            <trkpt lon="101.867552" lat="14.143996">
                <ele>27.534912</ele>
                <time>2007-07-01T03:04:50Z</time>
            </trkpt>
            <trkpt lon="101.867466" lat="14.144039">
                <ele>28.015503</ele>
                <time>2007-07-01T03:04:52Z</time>
            </trkpt>
            <trkpt lon="101.867359" lat="14.144318">
                <ele>29.457520</ele>
                <time>2007-07-01T03:04:59Z</time>
            </trkpt>
            <trkpt lon="101.867402" lat="14.144533">
                <ele>29.938110</ele>
                <time>2007-07-01T03:05:05Z</time>
            </trkpt>
            <trkpt lon="101.867380" lat="14.144619">
                <ele>29.938110</ele>
                <time>2007-07-01T03:05:07Z</time>
            </trkpt>
            <trkpt lon="101.867230" lat="14.144897">
                <ele>32.822266</ele>
                <time>2007-07-01T03:05:15Z</time>
            </trkpt>
            <trkpt lon="101.866951" lat="14.144855">
                <ele>35.225464</ele>
                <time>2007-07-01T03:05:22Z</time>
            </trkpt>
            <trkpt lon="101.866693" lat="14.144855">
                <ele>35.706055</ele>
                <time>2007-07-01T03:05:27Z</time>
            </trkpt>
            <trkpt lon="101.866415" lat="14.144962">
                <ele>37.148071</ele>
                <time>2007-07-01T03:05:34Z</time>
            </trkpt>
            <trkpt lon="101.866071" lat="14.144919">
                <ele>35.706055</ele>
                <time>2007-07-01T03:05:41Z</time>
            </trkpt>
            <trkpt lon="101.865921" lat="14.144726">
                <ele>35.225464</ele>
                <time>2007-07-01T03:05:46Z</time>
            </trkpt>
            <trkpt lon="101.865857" lat="14.144447">
                <ele>35.706055</ele>
                <time>2007-07-01T03:05:53Z</time>
            </trkpt>
            <trkpt lon="101.865234" lat="14.144447">
                <ele>36.186768</ele>
                <time>2007-07-01T03:06:06Z</time>
            </trkpt>
            <trkpt lon="101.864355" lat="14.144361">
                <ele>38.109375</ele>
                <time>2007-07-01T03:06:27Z</time>
            </trkpt>
            <trkpt lon="101.864011" lat="14.144211">
                <ele>37.628662</ele>
                <time>2007-07-01T03:06:37Z</time>
            </trkpt>
            <trkpt lon="101.863539" lat="14.144039">
                <ele>37.628662</ele>
                <time>2007-07-01T03:06:50Z</time>
            </trkpt>
            <trkpt lon="101.863067" lat="14.143910">
                <ele>37.628662</ele>
                <time>2007-07-01T03:07:01Z</time>
            </trkpt>
            <trkpt lon="101.862252" lat="14.144275">
                <ele>35.706055</ele>
                <time>2007-07-01T03:07:21Z</time>
            </trkpt>
            <trkpt lon="101.861823" lat="14.144640">
                <ele>37.628662</ele>
                <time>2007-07-01T03:07:35Z</time>
            </trkpt>
            <trkpt lon="101.861672" lat="14.144876">
                <ele>37.628662</ele>
                <time>2007-07-01T03:07:41Z</time>
            </trkpt>
            <trkpt lon="101.861479" lat="14.144940">
                <ele>37.628662</ele>
                <time>2007-07-01T03:07:46Z</time>
            </trkpt>
            <trkpt lon="101.861157" lat="14.144962">
                <ele>38.109375</ele>
                <time>2007-07-01T03:07:54Z</time>
            </trkpt>
            <trkpt lon="101.860750" lat="14.145477">
                <ele>38.590088</ele>
                <time>2007-07-01T03:08:11Z</time>
            </trkpt>
            <trkpt lon="101.860986" lat="14.145756">
                <ele>41.473999</ele>
                <time>2007-07-01T03:08:24Z</time>
            </trkpt>
            <trkpt lon="101.861007" lat="14.145799">
                <ele>41.954712</ele>
                <time>2007-07-01T03:08:27Z</time>
            </trkpt>
            <trkpt lon="101.861136" lat="14.145734">
                <ele>41.954712</ele>
                <time>2007-07-01T03:08:37Z</time>
            </trkpt>
            <trkpt lon="101.861479" lat="14.145863">
                <ele>41.473999</ele>
                <time>2007-07-01T03:08:48Z</time>
            </trkpt>
            <trkpt lon="101.861694" lat="14.146357">
                <ele>43.877319</ele>
                <time>2007-07-01T03:09:05Z</time>
            </trkpt>
            <trkpt lon="101.861951" lat="14.146893">
                <ele>47.241821</ele>
                <time>2007-07-01T03:09:24Z</time>
            </trkpt>
            <trkpt lon="101.862123" lat="14.147236">
                <ele>51.087158</ele>
                <time>2007-07-01T03:09:42Z</time>
            </trkpt>
            <trkpt lon="101.862295" lat="14.147601">
                <ele>53.971191</ele>
                <time>2007-07-01T03:10:01Z</time>
            </trkpt>
            <trkpt lon="101.862381" lat="14.147923">
                <ele>57.816528</ele>
                <time>2007-07-01T03:10:16Z</time>
            </trkpt>
            <trkpt lon="101.862209" lat="14.148116">
                <ele>57.335815</ele>
                <time>2007-07-01T03:10:26Z</time>
            </trkpt>
            <trkpt lon="101.861994" lat="14.148309">
                <ele>52.529175</ele>
                <time>2007-07-01T03:10:31Z</time>
            </trkpt>
            <trkpt lon="101.861651" lat="14.148610">
                <ele>49.164551</ele>
                <time>2007-07-01T03:10:43Z</time>
            </trkpt>
            <trkpt lon="101.861651" lat="14.148631">
                <ele>48.683960</ele>
                <time>2007-07-01T03:10:45Z</time>
            </trkpt>
            <trkpt lon="101.861694" lat="14.148631">
                <ele>49.164551</ele>
                <time>2007-07-01T03:10:53Z</time>
            </trkpt>
            <trkpt lon="101.861930" lat="14.148374">
                <ele>50.125977</ele>
                <time>2007-07-01T03:11:10Z</time>
            </trkpt>
            <trkpt lon="101.862144" lat="14.148524">
                <ele>55.413086</ele>
                <time>2007-07-01T03:11:21Z</time>
            </trkpt>
            <trkpt lon="101.862531" lat="14.148846">
                <ele>57.335815</ele>
                <time>2007-07-01T03:11:40Z</time>
            </trkpt>
            <trkpt lon="101.862874" lat="14.149189">
                <ele>53.971191</ele>
                <time>2007-07-01T03:11:56Z</time>
            </trkpt>
            <trkpt lon="101.862938" lat="14.149296">
                <ele>52.048584</ele>
                <time>2007-07-01T03:12:09Z</time>
            </trkpt>
            <trkpt lon="101.862938" lat="14.149361">
                <ele>44.838623</ele>
                <time>2007-07-01T03:15:06Z</time>
            </trkpt>
            <trkpt lon="101.863110" lat="14.149489">
                <ele>43.396606</ele>
                <time>2007-07-01T03:15:15Z</time>
            </trkpt>
            <trkpt lon="101.863260" lat="14.149575">
                <ele>42.916016</ele>
                <time>2007-07-01T03:15:22Z</time>
            </trkpt>
            <trkpt lon="101.863282" lat="14.149554">
                <ele>43.396606</ele>
                <time>2007-07-01T03:15:25Z</time>
            </trkpt>
            <trkpt lon="101.863239" lat="14.149532">
                <ele>43.396606</ele>
                <time>2007-07-01T03:15:29Z</time>
            </trkpt>
            <trkpt lon="101.862938" lat="14.149425">
                <ele>44.358032</ele>
                <time>2007-07-01T03:15:44Z</time>
            </trkpt>
            <trkpt lon="101.862767" lat="14.149489">
                <ele>41.954712</ele>
                <time>2007-07-01T03:15:51Z</time>
            </trkpt>
            <trkpt lon="101.862488" lat="14.149790">
                <ele>38.590088</ele>
                <time>2007-07-01T03:15:59Z</time>
            </trkpt>
            <trkpt lon="101.862273" lat="14.149876">
                <ele>38.109375</ele>
                <time>2007-07-01T03:16:04Z</time>
            </trkpt>
            <trkpt lon="101.862123" lat="14.149897">
                <ele>38.109375</ele>
                <time>2007-07-01T03:16:08Z</time>
            </trkpt>
            <trkpt lon="101.861908" lat="14.150047">
                <ele>38.109375</ele>
                <time>2007-07-01T03:16:14Z</time>
            </trkpt>
            <trkpt lon="101.861951" lat="14.150155">
                <ele>37.148071</ele>
                <time>2007-07-01T03:16:18Z</time>
            </trkpt>
            <trkpt lon="101.862144" lat="14.150541">
                <ele>38.109375</ele>
                <time>2007-07-01T03:16:31Z</time>
            </trkpt>
            <trkpt lon="101.862445" lat="14.151077">
                <ele>40.993408</ele>
                <time>2007-07-01T03:16:48Z</time>
            </trkpt>
            <trkpt lon="101.862874" lat="14.151700">
                <ele>42.916016</ele>
                <time>2007-07-01T03:17:09Z</time>
            </trkpt>
            <trkpt lon="101.863346" lat="14.151957">
                <ele>43.877319</ele>
                <time>2007-07-01T03:17:25Z</time>
            </trkpt>
            <trkpt lon="101.863518" lat="14.152215">
                <ele>46.280640</ele>
                <time>2007-07-01T03:17:38Z</time>
            </trkpt>
            <trkpt lon="101.863861" lat="14.152708">
                <ele>49.645264</ele>
                <time>2007-07-01T03:17:59Z</time>
            </trkpt>
            <trkpt lon="101.864183" lat="14.153137">
                <ele>51.087158</ele>
                <time>2007-07-01T03:18:16Z</time>
            </trkpt>
            <trkpt lon="101.864526" lat="14.153588">
                <ele>54.451782</ele>
                <time>2007-07-01T03:18:37Z</time>
            </trkpt>
            <trkpt lon="101.864913" lat="14.153953">
                <ele>58.297119</ele>
                <time>2007-07-01T03:18:58Z</time>
            </trkpt>
            <trkpt lon="101.865363" lat="14.154124">
                <ele>61.181030</ele>
                <time>2007-07-01T03:19:16Z</time>
            </trkpt>
            <trkpt lon="101.865857" lat="14.154360">
                <ele>62.142334</ele>
                <time>2007-07-01T03:19:33Z</time>
            </trkpt>
            <trkpt lon="101.866479" lat="14.154618">
                <ele>60.700317</ele>
                <time>2007-07-01T03:19:49Z</time>
            </trkpt>
            <trkpt lon="101.867037" lat="14.154811">
                <ele>61.181030</ele>
                <time>2007-07-01T03:20:05Z</time>
            </trkpt>
            <trkpt lon="101.867187" lat="14.154854">
                <ele>62.142334</ele>
                <time>2007-07-01T03:20:16Z</time>
            </trkpt>
            <trkpt lon="101.867380" lat="14.154875">
                <ele>62.142334</ele>
                <time>2007-07-01T03:20:43Z</time>
            </trkpt>
            <trkpt lon="101.867959" lat="14.154725">
                <ele>61.661743</ele>
                <time>2007-07-01T03:21:01Z</time>
            </trkpt>
            <trkpt lon="101.868389" lat="14.154661">
                <ele>62.622925</ele>
                <time>2007-07-01T03:21:18Z</time>
            </trkpt>
            <trkpt lon="101.868904" lat="14.154575">
                <ele>58.777710</ele>
                <time>2007-07-01T03:21:32Z</time>
            </trkpt>
            <trkpt lon="101.869032" lat="14.154274">
                <ele>58.297119</ele>
                <time>2007-07-01T03:21:41Z</time>
            </trkpt>
            <trkpt lon="101.869054" lat="14.154189">
                <ele>57.816528</ele>
                <time>2007-07-01T03:21:43Z</time>
            </trkpt>
            <trkpt lon="101.869290" lat="14.153738">
                <ele>54.932373</ele>
                <time>2007-07-01T03:21:52Z</time>
            </trkpt>
            <trkpt lon="101.869333" lat="14.153459">
                <ele>53.971191</ele>
                <time>2007-07-01T03:21:57Z</time>
            </trkpt>
            <trkpt lon="101.869161" lat="14.153309">
                <ele>54.451782</ele>
                <time>2007-07-01T03:22:04Z</time>
            </trkpt>
            <trkpt lon="101.869032" lat="14.153309">
                <ele>55.413086</ele>
                <time>2007-07-01T03:22:10Z</time>
            </trkpt>
            <trkpt lon="101.868646" lat="14.153202">
                <ele>57.335815</ele>
                <time>2007-07-01T03:22:27Z</time>
            </trkpt>
            <trkpt lon="101.868625" lat="14.153180">
                <ele>57.816528</ele>
                <time>2007-07-01T03:22:33Z</time>
            </trkpt>
            <trkpt lon="101.868818" lat="14.153287">
                <ele>55.893799</ele>
                <time>2007-07-01T03:22:42Z</time>
            </trkpt>
            <trkpt lon="101.869161" lat="14.153287">
                <ele>54.451782</ele>
                <time>2007-07-01T03:22:51Z</time>
            </trkpt>
            <trkpt lon="101.869333" lat="14.153481">
                <ele>53.490479</ele>
                <time>2007-07-01T03:22:58Z</time>
            </trkpt>
            <trkpt lon="101.869333" lat="14.153523">
                <ele>53.490479</ele>
                <time>2007-07-01T03:22:59Z</time>
            </trkpt>
            <trkpt lon="101.869118" lat="14.154124">
                <ele>56.374512</ele>
                <time>2007-07-01T03:23:17Z</time>
            </trkpt>
            <trkpt lon="101.868925" lat="14.154489">
                <ele>59.739136</ele>
                <time>2007-07-01T03:23:33Z</time>
            </trkpt>
            <trkpt lon="101.868689" lat="14.154639">
                <ele>61.661743</ele>
                <time>2007-07-01T03:23:45Z</time>
            </trkpt>
            <trkpt lon="101.868346" lat="14.154682">
                <ele>64.065063</ele>
                <time>2007-07-01T03:24:02Z</time>
            </trkpt>
            <trkpt lon="101.868281" lat="14.154661">
                <ele>64.065063</ele>
                <time>2007-07-01T03:24:05Z</time>
            </trkpt>
            <trkpt lon="101.867852" lat="14.154768">
                <ele>62.622925</ele>
                <time>2007-07-01T03:24:22Z</time>
            </trkpt>
            <trkpt lon="101.867402" lat="14.154875">
                <ele>63.584351</ele>
                <time>2007-07-01T03:24:38Z</time>
            </trkpt>
            <trkpt lon="101.867251" lat="14.154875">
                <ele>63.584351</ele>
                <time>2007-07-01T03:24:45Z</time>
            </trkpt>
            <trkpt lon="101.867187" lat="14.154961">
                <ele>63.584351</ele>
                <time>2007-07-01T03:24:55Z</time>
            </trkpt>
            <trkpt lon="101.867166" lat="14.154983">
                <ele>64.545654</ele>
                <time>2007-07-01T03:25:09Z</time>
            </trkpt>
            <trkpt lon="101.867187" lat="14.155004">
                <ele>65.026367</ele>
                <time>2007-07-01T03:25:26Z</time>
            </trkpt>
            <trkpt lon="101.867230" lat="14.155047">
                <ele>65.987671</ele>
                <time>2007-07-01T03:25:30Z</time>
            </trkpt>
            <trkpt lon="101.867208" lat="14.155004">
                <ele>65.987671</ele>
                <time>2007-07-01T03:25:36Z</time>
            </trkpt>
            <trkpt lon="101.866844" lat="14.154875">
                <ele>64.065063</ele>
                <time>2007-07-01T03:25:49Z</time>
            </trkpt>
            <trkpt lon="101.866028" lat="14.154553">
                <ele>64.065063</ele>
                <time>2007-07-01T03:26:11Z</time>
            </trkpt>
            <trkpt lon="101.865277" lat="14.154232">
                <ele>65.987671</ele>
                <time>2007-07-01T03:26:33Z</time>
            </trkpt>
            <trkpt lon="101.864913" lat="14.154103">
                <ele>65.507080</ele>
                <time>2007-07-01T03:26:42Z</time>
            </trkpt>
            <trkpt lon="101.864226" lat="14.154081">
                <ele>60.700317</ele>
                <time>2007-07-01T03:26:57Z</time>
            </trkpt>
            <trkpt lon="101.864140" lat="14.154081">
                <ele>60.219727</ele>
                <time>2007-07-01T03:27:01Z</time>
            </trkpt>
            <trkpt lon="101.864119" lat="14.154060">
                <ele>59.739136</ele>
                <time>2007-07-01T03:27:09Z</time>
            </trkpt>
            <trkpt lon="101.864183" lat="14.154081">
                <ele>60.219727</ele>
                <time>2007-07-01T03:27:13Z</time>
            </trkpt>
            <trkpt lon="101.864676" lat="14.154103">
                <ele>62.142334</ele>
                <time>2007-07-01T03:27:31Z</time>
            </trkpt>
            <trkpt lon="101.865041" lat="14.154124">
                <ele>64.065063</ele>
                <time>2007-07-01T03:27:47Z</time>
            </trkpt>
            <trkpt lon="101.865427" lat="14.154296">
                <ele>64.545654</ele>
                <time>2007-07-01T03:28:07Z</time>
            </trkpt>
            <trkpt lon="101.865535" lat="14.154339">
                <ele>65.507080</ele>
                <time>2007-07-01T03:28:21Z</time>
            </trkpt>
            <trkpt lon="101.865492" lat="14.154296">
                <ele>65.507080</ele>
                <time>2007-07-01T03:28:43Z</time>
            </trkpt>
            <trkpt lon="101.865449" lat="14.154274">
                <ele>64.545654</ele>
                <time>2007-07-01T03:28:48Z</time>
            </trkpt>
            <trkpt lon="101.865106" lat="14.154146">
                <ele>64.545654</ele>
                <time>2007-07-01T03:29:03Z</time>
            </trkpt>
            <trkpt lon="101.864977" lat="14.154081">
                <ele>65.026367</ele>
                <time>2007-07-01T03:29:06Z</time>
            </trkpt>
            <trkpt lon="101.864376" lat="14.154060">
                <ele>60.700317</ele>
                <time>2007-07-01T03:29:15Z</time>
            </trkpt>
            <trkpt lon="101.863689" lat="14.153953">
                <ele>54.451782</ele>
                <time>2007-07-01T03:29:23Z</time>
            </trkpt>
            <trkpt lon="101.862466" lat="14.153867">
                <ele>46.761230</ele>
                <time>2007-07-01T03:29:35Z</time>
            </trkpt>
            <trkpt lon="101.861801" lat="14.153738">
                <ele>44.358032</ele>
                <time>2007-07-01T03:29:44Z</time>
            </trkpt>
            <trkpt lon="101.861672" lat="14.153502">
                <ele>44.358032</ele>
                <time>2007-07-01T03:29:49Z</time>
            </trkpt>
            <trkpt lon="101.861780" lat="14.152730">
                <ele>47.241821</ele>
                <time>2007-07-01T03:30:10Z</time>
            </trkpt>
            <trkpt lon="101.861458" lat="14.152086">
                <ele>44.838623</ele>
                <time>2007-07-01T03:30:25Z</time>
            </trkpt>
            <trkpt lon="101.861157" lat="14.151549">
                <ele>42.916016</ele>
                <time>2007-07-01T03:30:35Z</time>
            </trkpt>
            <trkpt lon="101.860535" lat="14.151142">
                <ele>40.512817</ele>
                <time>2007-07-01T03:30:47Z</time>
            </trkpt>
            <trkpt lon="101.860256" lat="14.151163">
                <ele>39.551270</ele>
                <time>2007-07-01T03:30:52Z</time>
            </trkpt>
            <trkpt lon="101.859570" lat="14.151764">
                <ele>37.628662</ele>
                <time>2007-07-01T03:31:05Z</time>
            </trkpt>
            <trkpt lon="101.859183" lat="14.151914">
                <ele>37.148071</ele>
                <time>2007-07-01T03:31:12Z</time>
            </trkpt>
            <trkpt lon="101.858969" lat="14.151914">
                <ele>36.667480</ele>
                <time>2007-07-01T03:31:15Z</time>
            </trkpt>
            <trkpt lon="101.858861" lat="14.151871">
                <ele>36.667480</ele>
                <time>2007-07-01T03:31:17Z</time>
            </trkpt>
            <trkpt lon="101.858089" lat="14.151764">
                <ele>40.032104</ele>
                <time>2007-07-01T03:31:32Z</time>
            </trkpt>
            <trkpt lon="101.857703" lat="14.151721">
                <ele>41.954712</ele>
                <time>2007-07-01T03:31:43Z</time>
            </trkpt>
            <trkpt lon="101.857660" lat="14.151850">
                <ele>41.954712</ele>
                <time>2007-07-01T03:31:49Z</time>
            </trkpt>
            <trkpt lon="101.857746" lat="14.152279">
                <ele>40.993408</ele>
                <time>2007-07-01T03:32:01Z</time>
            </trkpt>
            <trkpt lon="101.858068" lat="14.152815">
                <ele>40.993408</ele>
                <time>2007-07-01T03:32:15Z</time>
            </trkpt>
            <trkpt lon="101.858068" lat="14.152901">
                <ele>40.032104</ele>
                <time>2007-07-01T03:32:26Z</time>
            </trkpt>
            <trkpt lon="101.858068" lat="14.152923">
                <ele>40.512817</ele>
                <time>2007-07-01T03:32:28Z</time>
            </trkpt>
            <trkpt lon="101.858110" lat="14.153116">
                <ele>40.032104</ele>
                <time>2007-07-01T03:32:41Z</time>
            </trkpt>
            <trkpt lon="101.858110" lat="14.153244">
                <ele>39.551270</ele>
                <time>2007-07-01T03:32:51Z</time>
            </trkpt>
            <trkpt lon="101.858089" lat="14.153824">
                <ele>36.667480</ele>
                <time>2007-07-01T03:33:12Z</time>
            </trkpt>
            <trkpt lon="101.858046" lat="14.154382">
                <ele>38.590088</ele>
                <time>2007-07-01T03:33:32Z</time>
            </trkpt>
            <trkpt lon="101.858025" lat="14.154618">
                <ele>44.358032</ele>
                <time>2007-07-01T03:33:44Z</time>
            </trkpt>
            <trkpt lon="101.857982" lat="14.154704">
                <ele>45.319214</ele>
                <time>2007-07-01T03:34:01Z</time>
            </trkpt>
            <trkpt lon="101.857917" lat="14.155004">
                <ele>47.241821</ele>
                <time>2007-07-01T03:34:17Z</time>
            </trkpt>
            <trkpt lon="101.857810" lat="14.155455">
                <ele>44.358032</ele>
                <time>2007-07-01T03:34:40Z</time>
            </trkpt>
            <trkpt lon="101.857810" lat="14.155798">
                <ele>46.761230</ele>
                <time>2007-07-01T03:35:00Z</time>
            </trkpt>
            <trkpt lon="101.857746" lat="14.156141">
                <ele>46.280640</ele>
                <time>2007-07-01T03:35:18Z</time>
            </trkpt>
            <trkpt lon="101.857681" lat="14.156506">
                <ele>46.280640</ele>
                <time>2007-07-01T03:35:36Z</time>
            </trkpt>
            <trkpt lon="101.857724" lat="14.156635">
                <ele>49.164551</ele>
                <time>2007-07-01T03:35:52Z</time>
            </trkpt>
            <trkpt lon="101.857767" lat="14.156742">
                <ele>48.203369</ele>
                <time>2007-07-01T03:36:01Z</time>
            </trkpt>
            <trkpt lon="101.857960" lat="14.157257">
                <ele>45.799927</ele>
                <time>2007-07-01T03:36:17Z</time>
            </trkpt>
            <trkpt lon="101.858282" lat="14.157879">
                <ele>47.722534</ele>
                <time>2007-07-01T03:36:37Z</time>
            </trkpt>
            <trkpt lon="101.858475" lat="14.158373">
                <ele>53.971191</ele>
                <time>2007-07-01T03:36:54Z</time>
            </trkpt>
            <trkpt lon="101.858625" lat="14.158888">
                <ele>54.932373</ele>
                <time>2007-07-01T03:37:12Z</time>
            </trkpt>
            <trkpt lon="101.858668" lat="14.159060">
                <ele>55.413086</ele>
                <time>2007-07-01T03:37:19Z</time>
            </trkpt>
            <trkpt lon="101.858647" lat="14.159017">
                <ele>56.374512</ele>
                <time>2007-07-01T03:37:24Z</time>
            </trkpt>
            <trkpt lon="101.858475" lat="14.158630">
                <ele>59.739136</ele>
                <time>2007-07-01T03:37:39Z</time>
            </trkpt>
            <trkpt lon="101.858325" lat="14.158051">
                <ele>58.297119</ele>
                <time>2007-07-01T03:37:55Z</time>
            </trkpt>
            <trkpt lon="101.858196" lat="14.157622">
                <ele>57.816528</ele>
                <time>2007-07-01T03:38:08Z</time>
            </trkpt>
            <trkpt lon="101.858153" lat="14.157643">
                <ele>56.374512</ele>
                <time>2007-07-01T03:38:13Z</time>
            </trkpt>
            <trkpt lon="101.858196" lat="14.157665">
                <ele>54.932373</ele>
                <time>2007-07-01T03:38:15Z</time>
            </trkpt>
            <trkpt lon="101.858261" lat="14.157794">
                <ele>55.893799</ele>
                <time>2007-07-01T03:38:19Z</time>
            </trkpt>
            <trkpt lon="101.858368" lat="14.158051">
                <ele>54.932373</ele>
                <time>2007-07-01T03:38:25Z</time>
            </trkpt>
            <trkpt lon="101.858668" lat="14.158716">
                <ele>53.490479</ele>
                <time>2007-07-01T03:38:45Z</time>
            </trkpt>
            <trkpt lon="101.858883" lat="14.159424">
                <ele>53.971191</ele>
                <time>2007-07-01T03:39:07Z</time>
            </trkpt>
            <trkpt lon="101.859205" lat="14.159811">
                <ele>53.490479</ele>
                <time>2007-07-01T03:39:20Z</time>
            </trkpt>
            <trkpt lon="101.859827" lat="14.160304">
                <ele>51.567871</ele>
                <time>2007-07-01T03:39:41Z</time>
            </trkpt>
            <trkpt lon="101.860127" lat="14.160390">
                <ele>50.125977</ele>
                <time>2007-07-01T03:39:50Z</time>
            </trkpt>
            <trkpt lon="101.860857" lat="14.160454">
                <ele>47.722534</ele>
                <time>2007-07-01T03:40:06Z</time>
            </trkpt>
            <trkpt lon="101.861415" lat="14.160690">
                <ele>47.722534</ele>
                <time>2007-07-01T03:40:23Z</time>
            </trkpt>
            <trkpt lon="101.861823" lat="14.161119">
                <ele>51.567871</ele>
                <time>2007-07-01T03:40:43Z</time>
            </trkpt>
            <trkpt lon="101.862016" lat="14.161613">
                <ele>53.009766</ele>
                <time>2007-07-01T03:41:03Z</time>
            </trkpt>
            <trkpt lon="101.862252" lat="14.162128">
                <ele>55.893799</ele>
                <time>2007-07-01T03:41:25Z</time>
            </trkpt>
            <trkpt lon="101.862423" lat="14.162750">
                <ele>55.413086</ele>
                <time>2007-07-01T03:41:39Z</time>
            </trkpt>
            <trkpt lon="101.862595" lat="14.163222">
                <ele>53.971191</ele>
                <time>2007-07-01T03:41:53Z</time>
            </trkpt>
            <trkpt lon="101.862724" lat="14.163609">
                <ele>53.971191</ele>
                <time>2007-07-01T03:42:08Z</time>
            </trkpt>
            <trkpt lon="101.862831" lat="14.163995">
                <ele>53.009766</ele>
                <time>2007-07-01T03:42:24Z</time>
            </trkpt>
            <trkpt lon="101.862960" lat="14.164381">
                <ele>53.971191</ele>
                <time>2007-07-01T03:42:45Z</time>
            </trkpt>
            <trkpt lon="101.862981" lat="14.164381">
                <ele>55.413086</ele>
                <time>2007-07-01T03:43:00Z</time>
            </trkpt>
            <trkpt lon="101.863132" lat="14.164767">
                <ele>57.335815</ele>
                <time>2007-07-01T03:43:17Z</time>
            </trkpt>
            <trkpt lon="101.863282" lat="14.165132">
                <ele>58.297119</ele>
                <time>2007-07-01T03:43:34Z</time>
            </trkpt>
            <trkpt lon="101.863453" lat="14.165561">
                <ele>60.219727</ele>
                <time>2007-07-01T03:43:55Z</time>
            </trkpt>
            <trkpt lon="101.863582" lat="14.165926">
                <ele>63.103638</ele>
                <time>2007-07-01T03:44:14Z</time>
            </trkpt>
            <trkpt lon="101.863711" lat="14.166355">
                <ele>64.065063</ele>
                <time>2007-07-01T03:44:36Z</time>
            </trkpt>
            <trkpt lon="101.863925" lat="14.166806">
                <ele>65.507080</ele>
                <time>2007-07-01T03:45:03Z</time>
            </trkpt>
            <trkpt lon="101.864312" lat="14.167192">
                <ele>71.755493</ele>
                <time>2007-07-01T03:45:25Z</time>
            </trkpt>
            <trkpt lon="101.864719" lat="14.167407">
                <ele>70.313477</ele>
                <time>2007-07-01T03:45:42Z</time>
            </trkpt>
            <trkpt lon="101.865084" lat="14.167557">
                <ele>67.910278</ele>
                <time>2007-07-01T03:45:59Z</time>
            </trkpt>
            <trkpt lon="101.865492" lat="14.167686">
                <ele>65.987671</ele>
                <time>2007-07-01T03:46:17Z</time>
            </trkpt>
            <trkpt lon="101.865664" lat="14.167707">
                <ele>65.507080</ele>
                <time>2007-07-01T03:46:35Z</time>
            </trkpt>
            <trkpt lon="101.865878" lat="14.167771">
                <ele>62.142334</ele>
                <time>2007-07-01T03:46:49Z</time>
            </trkpt>
            <trkpt lon="101.866200" lat="14.167879">
                <ele>61.661743</ele>
                <time>2007-07-01T03:47:05Z</time>
            </trkpt>
            <trkpt lon="101.866543" lat="14.167964">
                <ele>61.661743</ele>
                <time>2007-07-01T03:47:16Z</time>
            </trkpt>
            <trkpt lon="101.867316" lat="14.168158">
                <ele>56.855103</ele>
                <time>2007-07-01T03:47:36Z</time>
            </trkpt>
            <trkpt lon="101.868067" lat="14.168372">
                <ele>57.816528</ele>
                <time>2007-07-01T03:47:58Z</time>
            </trkpt>
            <trkpt lon="101.868303" lat="14.168458">
                <ele>59.739136</ele>
                <time>2007-07-01T03:48:14Z</time>
            </trkpt>
            <trkpt lon="101.868303" lat="14.168522">
                <ele>61.181030</ele>
                <time>2007-07-01T03:49:10Z</time>
            </trkpt>
            <trkpt lon="101.868196" lat="14.168887">
                <ele>64.065063</ele>
                <time>2007-07-01T03:49:34Z</time>
            </trkpt>
            <trkpt lon="101.868110" lat="14.169316">
                <ele>64.545654</ele>
                <time>2007-07-01T03:50:02Z</time>
            </trkpt>
            <trkpt lon="101.868196" lat="14.169788">
                <ele>65.507080</ele>
                <time>2007-07-01T03:50:38Z</time>
            </trkpt>
            <trkpt lon="101.867852" lat="14.170218">
                <ele>66.948975</ele>
                <time>2007-07-01T03:51:13Z</time>
            </trkpt>
            <trkpt lon="101.867530" lat="14.170518">
                <ele>67.429688</ele>
                <time>2007-07-01T03:51:33Z</time>
            </trkpt>
            <trkpt lon="101.867144" lat="14.170818">
                <ele>64.065063</ele>
                <time>2007-07-01T03:51:56Z</time>
            </trkpt>
            <trkpt lon="101.866715" lat="14.171183">
                <ele>63.103638</ele>
                <time>2007-07-01T03:52:19Z</time>
            </trkpt>
            <trkpt lon="101.866350" lat="14.171569">
                <ele>64.545654</ele>
                <time>2007-07-01T03:52:44Z</time>
            </trkpt>
            <trkpt lon="101.866114" lat="14.172127">
                <ele>66.468262</ele>
                <time>2007-07-01T03:53:12Z</time>
            </trkpt>
            <trkpt lon="101.865878" lat="14.172728">
                <ele>72.236206</ele>
                <time>2007-07-01T03:53:43Z</time>
            </trkpt>
            <trkpt lon="101.865513" lat="14.173093">
                <ele>78.484741</ele>
                <time>2007-07-01T03:54:04Z</time>
            </trkpt>
            <trkpt lon="101.865020" lat="14.173028">
                <ele>82.330078</ele>
                <time>2007-07-01T03:54:16Z</time>
            </trkpt>
            <trkpt lon="101.864097" lat="14.172900">
                <ele>87.617188</ele>
                <time>2007-07-01T03:54:34Z</time>
            </trkpt>
            <trkpt lon="101.863174" lat="14.172750">
                <ele>89.059326</ele>
                <time>2007-07-01T03:54:53Z</time>
            </trkpt>
            <trkpt lon="101.862767" lat="14.172728">
                <ele>90.501343</ele>
                <time>2007-07-01T03:55:00Z</time>
            </trkpt>
            <trkpt lon="101.862466" lat="14.172900">
                <ele>90.020630</ele>
                <time>2007-07-01T03:55:06Z</time>
            </trkpt>
            <trkpt lon="101.862123" lat="14.172878">
                <ele>90.501343</ele>
                <time>2007-07-01T03:55:12Z</time>
            </trkpt>
            <trkpt lon="101.860814" lat="14.172084">
                <ele>85.694580</ele>
                <time>2007-07-01T03:55:31Z</time>
            </trkpt>
            <trkpt lon="101.859827" lat="14.171484">
                <ele>83.771973</ele>
                <time>2007-07-01T03:55:48Z</time>
            </trkpt>
            <trkpt lon="101.859012" lat="14.170990">
                <ele>83.771973</ele>
                <time>2007-07-01T03:56:05Z</time>
            </trkpt>
            <trkpt lon="101.858926" lat="14.170969">
                <ele>83.771973</ele>
                <time>2007-07-01T03:56:11Z</time>
            </trkpt>
            <trkpt lon="101.859140" lat="14.169509">
                <ele>83.771973</ele>
                <time>2007-07-01T03:56:57Z</time>
            </trkpt>
            <trkpt lon="101.859097" lat="14.168587">
                <ele>83.771973</ele>
                <time>2007-07-01T03:57:20Z</time>
            </trkpt>
            <trkpt lon="101.858497" lat="14.168479">
                <ele>83.771973</ele>
                <time>2007-07-01T03:57:36Z</time>
            </trkpt>
            <trkpt lon="101.858389" lat="14.167943">
                <ele>80.888184</ele>
                <time>2007-07-01T03:57:53Z</time>
            </trkpt>
            <trkpt lon="101.858068" lat="14.167385">
                <ele>78.004028</ele>
                <time>2007-07-01T03:58:08Z</time>
            </trkpt>
            <trkpt lon="101.857617" lat="14.166870">
                <ele>78.004028</ele>
                <time>2007-07-01T03:58:27Z</time>
            </trkpt>
            <trkpt lon="101.857574" lat="14.166849">
                <ele>78.484741</ele>
                <time>2007-07-01T03:58:28Z</time>
            </trkpt>
            <trkpt lon="101.857488" lat="14.166827">
                <ele>78.965454</ele>
                <time>2007-07-01T03:58:30Z</time>
            </trkpt>
            <trkpt lon="101.857359" lat="14.166806">
                <ele>79.446045</ele>
                <time>2007-07-01T03:58:33Z</time>
            </trkpt>
            <trkpt lon="101.857274" lat="14.166784">
                <ele>79.446045</ele>
                <time>2007-07-01T03:58:35Z</time>
            </trkpt>
            <trkpt lon="101.856673" lat="14.166849">
                <ele>79.926636</ele>
                <time>2007-07-01T03:58:49Z</time>
            </trkpt>
            <trkpt lon="101.856608" lat="14.166870">
                <ele>78.484741</ele>
                <time>2007-07-01T03:58:53Z</time>
            </trkpt>
            <trkpt lon="101.855793" lat="14.166548">
                <ele>78.004028</ele>
                <time>2007-07-01T03:59:19Z</time>
            </trkpt>
            <trkpt lon="101.855621" lat="14.166312">
                <ele>78.004028</ele>
                <time>2007-07-01T03:59:24Z</time>
            </trkpt>
            <trkpt lon="101.855514" lat="14.166119">
                <ele>76.562134</ele>
                <time>2007-07-01T03:59:28Z</time>
            </trkpt>
            <trkpt lon="101.855450" lat="14.165990">
                <ele>75.600830</ele>
                <time>2007-07-01T03:59:31Z</time>
            </trkpt>
            <trkpt lon="101.855385" lat="14.165797">
                <ele>75.120239</ele>
                <time>2007-07-01T03:59:35Z</time>
            </trkpt>
            <trkpt lon="101.855385" lat="14.165497">
                <ele>74.639526</ele>
                <time>2007-07-01T03:59:41Z</time>
            </trkpt>
            <trkpt lon="101.855342" lat="14.164295">
                <ele>70.313477</ele>
                <time>2007-07-01T04:00:08Z</time>
            </trkpt>
            <trkpt lon="101.855278" lat="14.164102">
                <ele>68.871582</ele>
                <time>2007-07-01T04:00:18Z</time>
            </trkpt>
            <trkpt lon="101.855171" lat="14.163952">
                <ele>68.390869</ele>
                <time>2007-07-01T04:00:24Z</time>
            </trkpt>
            <trkpt lon="101.855128" lat="14.163845">
                <ele>67.910278</ele>
                <time>2007-07-01T04:00:26Z</time>
            </trkpt>
            <trkpt lon="101.854999" lat="14.163437">
                <ele>65.987671</ele>
                <time>2007-07-01T04:00:39Z</time>
            </trkpt>
            <trkpt lon="101.854999" lat="14.163437">
                <ele>64.545654</ele>
                <time>2007-07-01T04:00:44Z</time>
            </trkpt>
            <trkpt lon="101.854999" lat="14.163458">
                <ele>63.584351</ele>
                <time>2007-07-01T04:00:48Z</time>
            </trkpt>
            <trkpt lon="101.854913" lat="14.163523">
                <ele>64.065063</ele>
                <time>2007-07-01T04:00:51Z</time>
            </trkpt>
            <trkpt lon="101.854699" lat="14.163651">
                <ele>63.103638</ele>
                <time>2007-07-01T04:01:01Z</time>
            </trkpt>
            <trkpt lon="101.854570" lat="14.163716">
                <ele>60.700317</ele>
                <time>2007-07-01T04:01:16Z</time>
            </trkpt>
            <trkpt lon="101.854355" lat="14.163780">
                <ele>55.893799</ele>
                <time>2007-07-01T04:01:31Z</time>
            </trkpt>
            <trkpt lon="101.853991" lat="14.163802">
                <ele>49.164551</ele>
                <time>2007-07-01T04:01:49Z</time>
            </trkpt>
            <trkpt lon="101.853669" lat="14.163952">
                <ele>47.241821</ele>
                <time>2007-07-01T04:02:05Z</time>
            </trkpt>
            <trkpt lon="101.853197" lat="14.164488">
                <ele>45.799927</ele>
                <time>2007-07-01T04:02:28Z</time>
            </trkpt>
            <trkpt lon="101.852875" lat="14.164982">
                <ele>46.280640</ele>
                <time>2007-07-01T04:02:43Z</time>
            </trkpt>
            <trkpt lon="101.852295" lat="14.165668">
                <ele>43.396606</ele>
                <time>2007-07-01T04:03:02Z</time>
            </trkpt>
            <trkpt lon="101.851759" lat="14.166291">
                <ele>43.396606</ele>
                <time>2007-07-01T04:03:20Z</time>
            </trkpt>
            <trkpt lon="101.851051" lat="14.167128">
                <ele>42.435425</ele>
                <time>2007-07-01T04:03:45Z</time>
            </trkpt>
            <trkpt lon="101.850536" lat="14.167707">
                <ele>40.993408</ele>
                <time>2007-07-01T04:04:03Z</time>
            </trkpt>
            <trkpt lon="101.849978" lat="14.168351">
                <ele>41.954712</ele>
                <time>2007-07-01T04:04:23Z</time>
            </trkpt>
            <trkpt lon="101.849484" lat="14.168994">
                <ele>41.473999</ele>
                <time>2007-07-01T04:04:42Z</time>
            </trkpt>
            <trkpt lon="101.849356" lat="14.169123">
                <ele>41.473999</ele>
                <time>2007-07-01T04:04:46Z</time>
            </trkpt>
            <trkpt lon="101.848905" lat="14.169638">
                <ele>42.916016</ele>
                <time>2007-07-01T04:05:06Z</time>
            </trkpt>
            <trkpt lon="101.848862" lat="14.169595">
                <ele>42.435425</ele>
                <time>2007-07-01T04:05:08Z</time>
            </trkpt>
            <trkpt lon="101.848583" lat="14.169917">
                <ele>42.916016</ele>
                <time>2007-07-01T04:05:26Z</time>
            </trkpt>
            <trkpt lon="101.848326" lat="14.170260">
                <ele>47.722534</ele>
                <time>2007-07-01T04:05:44Z</time>
            </trkpt>
            <trkpt lon="101.848090" lat="14.170582">
                <ele>51.087158</ele>
                <time>2007-07-01T04:06:01Z</time>
            </trkpt>
            <trkpt lon="101.847768" lat="14.171033">
                <ele>53.490479</ele>
                <time>2007-07-01T04:06:24Z</time>
            </trkpt>
            <trkpt lon="101.847532" lat="14.171355">
                <ele>52.048584</ele>
                <time>2007-07-01T04:06:35Z</time>
            </trkpt>
            <trkpt lon="101.847382" lat="14.171505">
                <ele>52.048584</ele>
                <time>2007-07-01T04:06:40Z</time>
            </trkpt>
            <trkpt lon="101.846673" lat="14.172320">
                <ele>50.125977</ele>
                <time>2007-07-01T04:07:02Z</time>
            </trkpt>
            <trkpt lon="101.846395" lat="14.172685">
                <ele>49.645264</ele>
                <time>2007-07-01T04:07:11Z</time>
            </trkpt>
            <trkpt lon="101.846330" lat="14.172792">
                <ele>49.645264</ele>
                <time>2007-07-01T04:07:21Z</time>
            </trkpt>
            <trkpt lon="101.846330" lat="14.172771">
                <ele>46.280640</ele>
                <time>2007-07-01T04:12:42Z</time>
            </trkpt>
            <trkpt lon="101.846137" lat="14.173007">
                <ele>45.799927</ele>
                <time>2007-07-01T04:12:55Z</time>
            </trkpt>
            <trkpt lon="101.845772" lat="14.173436">
                <ele>46.280640</ele>
                <time>2007-07-01T04:13:10Z</time>
            </trkpt>
            <trkpt lon="101.845236" lat="14.174080">
                <ele>45.319214</ele>
                <time>2007-07-01T04:13:30Z</time>
            </trkpt>
            <trkpt lon="101.844807" lat="14.174616">
                <ele>46.761230</ele>
                <time>2007-07-01T04:13:48Z</time>
            </trkpt>
            <trkpt lon="101.844378" lat="14.175024">
                <ele>46.280640</ele>
                <time>2007-07-01T04:14:07Z</time>
            </trkpt>
            <trkpt lon="101.843970" lat="14.175217">
                <ele>52.529175</ele>
                <time>2007-07-01T04:14:27Z</time>
            </trkpt>
            <trkpt lon="101.843498" lat="14.175324">
                <ele>51.087158</ele>
                <time>2007-07-01T04:14:44Z</time>
            </trkpt>
            <trkpt lon="101.842875" lat="14.175389">
                <ele>50.606567</ele>
                <time>2007-07-01T04:15:01Z</time>
            </trkpt>
            <trkpt lon="101.842339" lat="14.175475">
                <ele>52.529175</ele>
                <time>2007-07-01T04:15:21Z</time>
            </trkpt>
            <trkpt lon="101.842189" lat="14.175496">
                <ele>50.125977</ele>
                <time>2007-07-01T04:15:35Z</time>
            </trkpt>
            <trkpt lon="101.842210" lat="14.175475">
                <ele>48.203369</ele>
                <time>2007-07-01T04:15:45Z</time>
            </trkpt>
            <trkpt lon="101.842618" lat="14.175432">
                <ele>51.567871</ele>
                <time>2007-07-01T04:16:04Z</time>
            </trkpt>
            <trkpt lon="101.843047" lat="14.175367">
                <ele>55.893799</ele>
                <time>2007-07-01T04:16:21Z</time>
            </trkpt>
            <trkpt lon="101.843691" lat="14.175260">
                <ele>56.855103</ele>
                <time>2007-07-01T04:16:42Z</time>
            </trkpt>
            <trkpt lon="101.844378" lat="14.175045">
                <ele>57.335815</ele>
                <time>2007-07-01T04:16:58Z</time>
            </trkpt>
            <trkpt lon="101.845000" lat="14.174509">
                <ele>55.893799</ele>
                <time>2007-07-01T04:17:11Z</time>
            </trkpt>
            <trkpt lon="101.845193" lat="14.174316">
                <ele>55.893799</ele>
                <time>2007-07-01T04:17:16Z</time>
            </trkpt>
            <trkpt lon="101.845880" lat="14.173329">
                <ele>52.048584</ele>
                <time>2007-07-01T04:17:41Z</time>
            </trkpt>
            <trkpt lon="101.846159" lat="14.173007">
                <ele>53.009766</ele>
                <time>2007-07-01T04:17:50Z</time>
            </trkpt>
            <trkpt lon="101.846545" lat="14.172471">
                <ele>53.009766</ele>
                <time>2007-07-01T04:18:08Z</time>
            </trkpt>
            <trkpt lon="101.846910" lat="14.172063">
                <ele>54.451782</ele>
                <time>2007-07-01T04:18:25Z</time>
            </trkpt>
            <trkpt lon="101.847167" lat="14.171762">
                <ele>53.490479</ele>
                <time>2007-07-01T04:18:41Z</time>
            </trkpt>
            <trkpt lon="101.847360" lat="14.171526">
                <ele>53.009766</ele>
                <time>2007-07-01T04:18:56Z</time>
            </trkpt>
            <trkpt lon="101.847296" lat="14.171441">
                <ele>54.451782</ele>
                <time>2007-07-01T04:19:02Z</time>
            </trkpt>
            <trkpt lon="101.847231" lat="14.171162">
                <ele>56.855103</ele>
                <time>2007-07-01T04:19:19Z</time>
            </trkpt>
            <trkpt lon="101.847210" lat="14.170775">
                <ele>58.777710</ele>
                <time>2007-07-01T04:19:36Z</time>
            </trkpt>
            <trkpt lon="101.846824" lat="14.170411">
                <ele>61.661743</ele>
                <time>2007-07-01T04:19:55Z</time>
            </trkpt>
            <trkpt lon="101.846030" lat="14.169703">
                <ele>61.181030</ele>
                <time>2007-07-01T04:20:27Z</time>
            </trkpt>
            <trkpt lon="101.845837" lat="14.169574">
                <ele>61.181030</ele>
                <time>2007-07-01T04:20:32Z</time>
            </trkpt>
            <trkpt lon="101.845558" lat="14.169531">
                <ele>61.181030</ele>
                <time>2007-07-01T04:20:37Z</time>
            </trkpt>
            <trkpt lon="101.845322" lat="14.169552">
                <ele>61.181030</ele>
                <time>2007-07-01T04:20:42Z</time>
            </trkpt>
            <trkpt lon="101.844292" lat="14.169424">
                <ele>61.181030</ele>
                <time>2007-07-01T04:21:01Z</time>
            </trkpt>
            <trkpt lon="101.844184" lat="14.169424">
                <ele>61.181030</ele>
                <time>2007-07-01T04:21:03Z</time>
            </trkpt>
            <trkpt lon="101.844077" lat="14.169381">
                <ele>60.700317</ele>
                <time>2007-07-01T04:21:05Z</time>
            </trkpt>
            <trkpt lon="101.843305" lat="14.168758">
                <ele>53.490479</ele>
                <time>2007-07-01T04:21:17Z</time>
            </trkpt>
            <trkpt lon="101.843240" lat="14.168544">
                <ele>47.722534</ele>
                <time>2007-07-01T04:21:30Z</time>
            </trkpt>
            <trkpt lon="101.843197" lat="14.168329">
                <ele>49.164551</ele>
                <time>2007-07-01T04:21:41Z</time>
            </trkpt>
            <trkpt lon="101.843176" lat="14.168029">
                <ele>47.241821</ele>
                <time>2007-07-01T04:21:59Z</time>
            </trkpt>
            <trkpt lon="101.842940" lat="14.167857">
                <ele>44.838623</ele>
                <time>2007-07-01T04:22:16Z</time>
            </trkpt>
            <trkpt lon="101.842918" lat="14.167814">
                <ele>44.838623</ele>
                <time>2007-07-01T04:22:20Z</time>
            </trkpt>
            <trkpt lon="101.842854" lat="14.167793">
                <ele>44.358032</ele>
                <time>2007-07-01T04:22:25Z</time>
            </trkpt>
            <trkpt lon="101.842489" lat="14.168050">
                <ele>44.358032</ele>
                <time>2007-07-01T04:22:39Z</time>
            </trkpt>
            <trkpt lon="101.841910" lat="14.168243">
                <ele>46.280640</ele>
                <time>2007-07-01T04:22:57Z</time>
            </trkpt>
            <trkpt lon="101.841567" lat="14.168286">
                <ele>42.435425</ele>
                <time>2007-07-01T04:23:12Z</time>
            </trkpt>
            <trkpt lon="101.841223" lat="14.168329">
                <ele>50.125977</ele>
                <time>2007-07-01T04:23:31Z</time>
            </trkpt>
            <trkpt lon="101.840987" lat="14.168308">
                <ele>51.087158</ele>
                <time>2007-07-01T04:23:42Z</time>
            </trkpt>
            <trkpt lon="101.841009" lat="14.168243">
                <ele>52.048584</ele>
                <time>2007-07-01T04:23:51Z</time>
            </trkpt>
            <trkpt lon="101.841030" lat="14.168136">
                <ele>53.971191</ele>
                <time>2007-07-01T04:24:06Z</time>
            </trkpt>
            <trkpt lon="101.841266" lat="14.167600">
                <ele>51.567871</ele>
                <time>2007-07-01T04:24:18Z</time>
            </trkpt>
            <trkpt lon="101.841459" lat="14.167256">
                <ele>50.125977</ele>
                <time>2007-07-01T04:24:24Z</time>
            </trkpt>
            <trkpt lon="101.841481" lat="14.166999">
                <ele>48.683960</ele>
                <time>2007-07-01T04:24:28Z</time>
            </trkpt>
            <trkpt lon="101.841288" lat="14.166698">
                <ele>48.203369</ele>
                <time>2007-07-01T04:24:34Z</time>
            </trkpt>
            <trkpt lon="101.841052" lat="14.165905">
                <ele>46.280640</ele>
                <time>2007-07-01T04:24:47Z</time>
            </trkpt>
            <trkpt lon="101.841266" lat="14.164960">
                <ele>40.993408</ele>
                <time>2007-07-01T04:25:00Z</time>
            </trkpt>
            <trkpt lon="101.841373" lat="14.164639">
                <ele>39.070679</ele>
                <time>2007-07-01T04:25:04Z</time>
            </trkpt>
            <trkpt lon="101.841331" lat="14.163759">
                <ele>37.628662</ele>
                <time>2007-07-01T04:25:16Z</time>
            </trkpt>
            <trkpt lon="101.841331" lat="14.162707">
                <ele>37.148071</ele>
                <time>2007-07-01T04:25:33Z</time>
            </trkpt>
            <trkpt lon="101.841352" lat="14.162450">
                <ele>36.667480</ele>
                <time>2007-07-01T04:25:38Z</time>
            </trkpt>
            <trkpt lon="101.841266" lat="14.162214">
                <ele>37.628662</ele>
                <time>2007-07-01T04:25:43Z</time>
            </trkpt>
            <trkpt lon="101.840687" lat="14.161699">
                <ele>41.473999</ele>
                <time>2007-07-01T04:25:59Z</time>
            </trkpt>
            <trkpt lon="101.840236" lat="14.161377">
                <ele>41.473999</ele>
                <time>2007-07-01T04:26:12Z</time>
            </trkpt>
            <trkpt lon="101.839614" lat="14.160798">
                <ele>38.590088</ele>
                <time>2007-07-01T04:26:31Z</time>
            </trkpt>
            <trkpt lon="101.839206" lat="14.160476">
                <ele>36.186768</ele>
                <time>2007-07-01T04:26:41Z</time>
            </trkpt>
            <trkpt lon="101.839099" lat="14.160368">
                <ele>35.706055</ele>
                <time>2007-07-01T04:26:44Z</time>
            </trkpt>
            <trkpt lon="101.838756" lat="14.159768">
                <ele>34.264160</ele>
                <time>2007-07-01T04:26:58Z</time>
            </trkpt>
            <trkpt lon="101.838756" lat="14.159510">
                <ele>34.744873</ele>
                <time>2007-07-01T04:27:04Z</time>
            </trkpt>
            <trkpt lon="101.839378" lat="14.159102">
                <ele>33.302856</ele>
                <time>2007-07-01T04:27:18Z</time>
            </trkpt>
            <trkpt lon="101.840043" lat="14.158480">
                <ele>32.822266</ele>
                <time>2007-07-01T04:27:38Z</time>
            </trkpt>
            <trkpt lon="101.840494" lat="14.157965">
                <ele>35.225464</ele>
                <time>2007-07-01T04:27:56Z</time>
            </trkpt>
            <trkpt lon="101.840515" lat="14.157686">
                <ele>35.706055</ele>
                <time>2007-07-01T04:28:09Z</time>
            </trkpt>
            <trkpt lon="101.840472" lat="14.157407">
                <ele>38.109375</ele>
                <time>2007-07-01T04:28:26Z</time>
            </trkpt>
            <trkpt lon="101.840451" lat="14.157171">
                <ele>41.473999</ele>
                <time>2007-07-01T04:28:44Z</time>
            </trkpt>
            <trkpt lon="101.840301" lat="14.157107">
                <ele>40.512817</ele>
                <time>2007-07-01T04:28:52Z</time>
            </trkpt>
            <trkpt lon="101.840107" lat="14.156935">
                <ele>40.993408</ele>
                <time>2007-07-01T04:28:59Z</time>
            </trkpt>
            <trkpt lon="101.839828" lat="14.156635">
                <ele>41.473999</ele>
                <time>2007-07-01T04:29:11Z</time>
            </trkpt>
            <trkpt lon="101.839571" lat="14.156399">
                <ele>36.667480</ele>
                <time>2007-07-01T04:29:22Z</time>
            </trkpt>
            <trkpt lon="101.839528" lat="14.156055">
                <ele>39.551270</ele>
                <time>2007-07-01T04:29:36Z</time>
            </trkpt>
            <trkpt lon="101.839614" lat="14.155734">
                <ele>42.435425</ele>
                <time>2007-07-01T04:29:52Z</time>
            </trkpt>
            <trkpt lon="101.839678" lat="14.155369">
                <ele>46.280640</ele>
                <time>2007-07-01T04:30:07Z</time>
            </trkpt>
            <trkpt lon="101.839592" lat="14.154789">
                <ele>44.358032</ele>
                <time>2007-07-01T04:30:21Z</time>
            </trkpt>
            <trkpt lon="101.839571" lat="14.154682">
                <ele>44.838623</ele>
                <time>2007-07-01T04:30:23Z</time>
            </trkpt>
            <trkpt lon="101.839507" lat="14.154403">
                <ele>44.838623</ele>
                <time>2007-07-01T04:30:28Z</time>
            </trkpt>
            <trkpt lon="101.839421" lat="14.154038">
                <ele>44.358032</ele>
                <time>2007-07-01T04:30:35Z</time>
            </trkpt>
            <trkpt lon="101.839571" lat="14.153888">
                <ele>45.319214</ele>
                <time>2007-07-01T04:30:41Z</time>
            </trkpt>
            <trkpt lon="101.840215" lat="14.153845">
                <ele>46.761230</ele>
                <time>2007-07-01T04:31:00Z</time>
            </trkpt>
            <trkpt lon="101.840687" lat="14.153845">
                <ele>47.241821</ele>
                <time>2007-07-01T04:31:19Z</time>
            </trkpt>
            <trkpt lon="101.840923" lat="14.153566">
                <ele>44.838623</ele>
                <time>2007-07-01T04:31:35Z</time>
            </trkpt>
            <trkpt lon="101.841009" lat="14.152966">
                <ele>44.358032</ele>
                <time>2007-07-01T04:31:54Z</time>
            </trkpt>
            <trkpt lon="101.841073" lat="14.152279">
                <ele>46.761230</ele>
                <time>2007-07-01T04:32:16Z</time>
            </trkpt>
            <trkpt lon="101.840880" lat="14.151871">
                <ele>45.319214</ele>
                <time>2007-07-01T04:32:31Z</time>
            </trkpt>
            <trkpt lon="101.840687" lat="14.151614">
                <ele>44.358032</ele>
                <time>2007-07-01T04:32:39Z</time>
            </trkpt>
            <trkpt lon="101.840472" lat="14.151592">
                <ele>44.358032</ele>
                <time>2007-07-01T04:32:44Z</time>
            </trkpt>
            <trkpt lon="101.840022" lat="14.151721">
                <ele>43.396606</ele>
                <time>2007-07-01T04:32:54Z</time>
            </trkpt>
            <trkpt lon="101.839421" lat="14.151850">
                <ele>42.435425</ele>
                <time>2007-07-01T04:33:09Z</time>
            </trkpt>
            <trkpt lon="101.839292" lat="14.151850">
                <ele>42.916016</ele>
                <time>2007-07-01T04:33:13Z</time>
            </trkpt>
            <trkpt lon="101.839163" lat="14.151442">
                <ele>43.877319</ele>
                <time>2007-07-01T04:33:28Z</time>
            </trkpt>
            <trkpt lon="101.838992" lat="14.150884">
                <ele>45.319214</ele>
                <time>2007-07-01T04:33:45Z</time>
            </trkpt>
            <trkpt lon="101.838820" lat="14.150262">
                <ele>47.241821</ele>
                <time>2007-07-01T04:34:05Z</time>
            </trkpt>
            <trkpt lon="101.838648" lat="14.149725">
                <ele>48.203369</ele>
                <time>2007-07-01T04:34:23Z</time>
            </trkpt>
            <trkpt lon="101.838605" lat="14.149210">
                <ele>48.683960</ele>
                <time>2007-07-01T04:34:41Z</time>
            </trkpt>
            <trkpt lon="101.838841" lat="14.148996">
                <ele>49.645264</ele>
                <time>2007-07-01T04:34:52Z</time>
            </trkpt>
            <trkpt lon="101.838713" lat="14.148653">
                <ele>49.645264</ele>
                <time>2007-07-01T04:35:05Z</time>
            </trkpt>
            <trkpt lon="101.838541" lat="14.148266">
                <ele>49.164551</ele>
                <time>2007-07-01T04:35:16Z</time>
            </trkpt>
            <trkpt lon="101.838541" lat="14.148180">
                <ele>49.164551</ele>
                <time>2007-07-01T04:35:18Z</time>
            </trkpt>
            <trkpt lon="101.838348" lat="14.147408">
                <ele>49.164551</ele>
                <time>2007-07-01T04:35:38Z</time>
            </trkpt>
            <trkpt lon="101.838090" lat="14.146721">
                <ele>50.606567</ele>
                <time>2007-07-01T04:35:59Z</time>
            </trkpt>
            <trkpt lon="101.837962" lat="14.146442">
                <ele>52.529175</ele>
                <time>2007-07-01T04:36:15Z</time>
            </trkpt>
            <trkpt lon="101.837940" lat="14.146464">
                <ele>53.009766</ele>
                <time>2007-07-01T04:36:34Z</time>
            </trkpt>
            <trkpt lon="101.837940" lat="14.146442">
                <ele>56.374512</ele>
                <time>2007-07-01T04:46:18Z</time>
            </trkpt>
            <trkpt lon="101.837940" lat="14.146378">
                <ele>54.932373</ele>
                <time>2007-07-01T04:46:34Z</time>
            </trkpt>
            <trkpt lon="101.837940" lat="14.146335">
                <ele>55.893799</ele>
                <time>2007-07-01T04:46:50Z</time>
            </trkpt>
            <trkpt lon="101.837940" lat="14.146335">
                <ele>55.413086</ele>
                <time>2007-07-01T04:47:01Z</time>
            </trkpt>
            <trkpt lon="101.837533" lat="14.146271">
                <ele>55.413086</ele>
                <time>2007-07-01T04:47:16Z</time>
            </trkpt>
            <trkpt lon="101.836696" lat="14.146249">
                <ele>55.413086</ele>
                <time>2007-07-01T04:47:35Z</time>
            </trkpt>
            <trkpt lon="101.835752" lat="14.146228">
                <ele>53.971191</ele>
                <time>2007-07-01T04:47:54Z</time>
            </trkpt>
            <trkpt lon="101.835623" lat="14.145949">
                <ele>52.048584</ele>
                <time>2007-07-01T04:48:01Z</time>
            </trkpt>
            <trkpt lon="101.835623" lat="14.145820">
                <ele>51.087158</ele>
                <time>2007-07-01T04:48:05Z</time>
            </trkpt>
            <trkpt lon="101.836073" lat="14.145155">
                <ele>48.203369</ele>
                <time>2007-07-01T04:48:23Z</time>
            </trkpt>
            <trkpt lon="101.836824" lat="14.144576">
                <ele>50.125977</ele>
                <time>2007-07-01T04:48:42Z</time>
            </trkpt>
            <trkpt lon="101.837318" lat="14.144146">
                <ele>50.606567</ele>
                <time>2007-07-01T04:48:58Z</time>
            </trkpt>
            <trkpt lon="101.837447" lat="14.144018">
                <ele>49.164551</ele>
                <time>2007-07-01T04:49:11Z</time>
            </trkpt>
            <trkpt lon="101.837468" lat="14.143996">
                <ele>53.009766</ele>
                <time>2007-07-01T04:50:23Z</time>
            </trkpt>
            <trkpt lon="101.837490" lat="14.143996">
                <ele>53.009766</ele>
                <time>2007-07-01T04:50:25Z</time>
            </trkpt>
            <trkpt lon="101.837811" lat="14.143803">
                <ele>50.606567</ele>
                <time>2007-07-01T04:50:42Z</time>
            </trkpt>
            <trkpt lon="101.837897" lat="14.143717">
                <ele>50.125977</ele>
                <time>2007-07-01T04:50:45Z</time>
            </trkpt>
            <trkpt lon="101.838090" lat="14.143395">
                <ele>48.683960</ele>
                <time>2007-07-01T04:50:56Z</time>
            </trkpt>
            <trkpt lon="101.838326" lat="14.142795">
                <ele>46.280640</ele>
                <time>2007-07-01T04:51:13Z</time>
            </trkpt>
            <trkpt lon="101.838412" lat="14.142516">
                <ele>46.761230</ele>
                <time>2007-07-01T04:51:21Z</time>
            </trkpt>
            <trkpt lon="101.838477" lat="14.142430">
                <ele>46.280640</ele>
                <time>2007-07-01T04:51:25Z</time>
            </trkpt>
            <trkpt lon="101.838477" lat="14.142344">
                <ele>51.567871</ele>
                <time>2007-07-01T04:51:40Z</time>
            </trkpt>
            <trkpt lon="101.838455" lat="14.142344">
                <ele>52.529175</ele>
                <time>2007-07-01T04:51:45Z</time>
            </trkpt>
            <trkpt lon="101.838069" lat="14.142344">
                <ele>52.048584</ele>
                <time>2007-07-01T04:51:58Z</time>
            </trkpt>
            <trkpt lon="101.837211" lat="14.142194">
                <ele>48.203369</ele>
                <time>2007-07-01T04:52:19Z</time>
            </trkpt>
            <trkpt lon="101.836417" lat="14.142065">
                <ele>46.761230</ele>
                <time>2007-07-01T04:52:37Z</time>
            </trkpt>
            <trkpt lon="101.836331" lat="14.142001">
                <ele>46.280640</ele>
                <time>2007-07-01T04:52:40Z</time>
            </trkpt>
            <trkpt lon="101.836159" lat="14.141507">
                <ele>43.877319</ele>
                <time>2007-07-01T04:52:51Z</time>
            </trkpt>
            <trkpt lon="101.835880" lat="14.140842">
                <ele>40.032104</ele>
                <time>2007-07-01T04:53:07Z</time>
            </trkpt>
            <trkpt lon="101.835687" lat="14.140177">
                <ele>38.109375</ele>
                <time>2007-07-01T04:53:23Z</time>
            </trkpt>
            <trkpt lon="101.835601" lat="14.139941">
                <ele>37.148071</ele>
                <time>2007-07-01T04:53:33Z</time>
            </trkpt>
            <trkpt lon="101.835537" lat="14.139619">
                <ele>35.706055</ele>
                <time>2007-07-01T04:53:47Z</time>
            </trkpt>
            <trkpt lon="101.835365" lat="14.139211">
                <ele>34.264160</ele>
                <time>2007-07-01T04:54:01Z</time>
            </trkpt>
            <trkpt lon="101.835258" lat="14.138718">
                <ele>31.860718</ele>
                <time>2007-07-01T04:54:16Z</time>
            </trkpt>
            <trkpt lon="101.835494" lat="14.138589">
                <ele>31.380127</ele>
                <time>2007-07-01T04:54:25Z</time>
            </trkpt>
            <trkpt lon="101.835752" lat="14.138525">
                <ele>31.860718</ele>
                <time>2007-07-01T04:54:33Z</time>
            </trkpt>
            <trkpt lon="101.835666" lat="14.138117">
                <ele>30.899536</ele>
                <time>2007-07-01T04:54:44Z</time>
            </trkpt>
            <trkpt lon="101.835430" lat="14.137280">
                <ele>27.534912</ele>
                <time>2007-07-01T04:55:03Z</time>
            </trkpt>
            <trkpt lon="101.835215" lat="14.136615">
                <ele>26.092896</ele>
                <time>2007-07-01T04:55:18Z</time>
            </trkpt>
            <trkpt lon="101.835022" lat="14.136314">
                <ele>25.612305</ele>
                <time>2007-07-01T04:55:30Z</time>
            </trkpt>
            <trkpt lon="101.834872" lat="14.136186">
                <ele>27.054321</ele>
                <time>2007-07-01T04:55:45Z</time>
            </trkpt>
            <trkpt lon="101.834807" lat="14.136100">
                <ele>28.015503</ele>
                <time>2007-07-01T04:55:57Z</time>
            </trkpt>
            <trkpt lon="101.834829" lat="14.135714">
                <ele>29.457520</ele>
                <time>2007-07-01T04:56:09Z</time>
            </trkpt>
            <trkpt lon="101.834722" lat="14.135435">
                <ele>29.938110</ele>
                <time>2007-07-01T04:56:20Z</time>
            </trkpt>
            <trkpt lon="101.834571" lat="14.135113">
                <ele>31.380127</ele>
                <time>2007-07-01T04:56:36Z</time>
            </trkpt>
            <trkpt lon="101.834464" lat="14.134684">
                <ele>29.938110</ele>
                <time>2007-07-01T04:56:51Z</time>
            </trkpt>
            <trkpt lon="101.834400" lat="14.134319">
                <ele>29.938110</ele>
                <time>2007-07-01T04:57:03Z</time>
            </trkpt>
            <trkpt lon="101.834378" lat="14.134104">
                <ele>29.457520</ele>
                <time>2007-07-01T04:57:10Z</time>
            </trkpt>
            <trkpt lon="101.834507" lat="14.134061">
                <ele>29.457520</ele>
                <time>2007-07-01T04:57:15Z</time>
            </trkpt>
            <trkpt lon="101.834764" lat="14.134104">
                <ele>29.457520</ele>
                <time>2007-07-01T04:57:22Z</time>
            </trkpt>
            <trkpt lon="101.835237" lat="14.134727">
                <ele>29.938110</ele>
                <time>2007-07-01T04:57:42Z</time>
            </trkpt>
            <trkpt lon="101.835451" lat="14.134898">
                <ele>30.418823</ele>
                <time>2007-07-01T04:57:52Z</time>
            </trkpt>
            <trkpt lon="101.836181" lat="14.134920">
                <ele>31.860718</ele>
                <time>2007-07-01T04:58:10Z</time>
            </trkpt>
            <trkpt lon="101.836846" lat="14.134748">
                <ele>31.380127</ele>
                <time>2007-07-01T04:58:26Z</time>
            </trkpt>
            <trkpt lon="101.837575" lat="14.134383">
                <ele>31.380127</ele>
                <time>2007-07-01T04:58:44Z</time>
            </trkpt>
            <trkpt lon="101.837833" lat="14.134276">
                <ele>31.860718</ele>
                <time>2007-07-01T04:58:50Z</time>
            </trkpt>
            <trkpt lon="101.838434" lat="14.134040">
                <ele>32.341553</ele>
                <time>2007-07-01T04:59:05Z</time>
            </trkpt>
            <trkpt lon="101.838541" lat="14.134147">
                <ele>32.341553</ele>
                <time>2007-07-01T04:59:09Z</time>
            </trkpt>
            <trkpt lon="101.838949" lat="14.134340">
                <ele>31.860718</ele>
                <time>2007-07-01T04:59:21Z</time>
            </trkpt>
            <trkpt lon="101.839314" lat="14.134448">
                <ele>31.380127</ele>
                <time>2007-07-01T04:59:31Z</time>
            </trkpt>
            <trkpt lon="101.839507" lat="14.134512">
                <ele>31.380127</ele>
                <time>2007-07-01T04:59:36Z</time>
            </trkpt>
            <trkpt lon="101.839871" lat="14.134684">
                <ele>32.341553</ele>
                <time>2007-07-01T04:59:45Z</time>
            </trkpt>
            <trkpt lon="101.839979" lat="14.134791">
                <ele>32.341553</ele>
                <time>2007-07-01T04:59:49Z</time>
            </trkpt>
            <trkpt lon="101.840258" lat="14.135113">
                <ele>32.822266</ele>
                <time>2007-07-01T04:59:59Z</time>
            </trkpt>
            <trkpt lon="101.840408" lat="14.135199">
                <ele>32.822266</ele>
                <time>2007-07-01T05:00:03Z</time>
            </trkpt>
            <trkpt lon="101.841030" lat="14.135113">
                <ele>31.380127</ele>
                <time>2007-07-01T05:00:14Z</time>
            </trkpt>
            <trkpt lon="101.841331" lat="14.135070">
                <ele>32.822266</ele>
                <time>2007-07-01T05:00:20Z</time>
            </trkpt>
            <trkpt lon="101.841910" lat="14.134984">
                <ele>33.302856</ele>
                <time>2007-07-01T05:00:34Z</time>
            </trkpt>
            <trkpt lon="101.842060" lat="14.134984">
                <ele>33.302856</ele>
                <time>2007-07-01T05:00:38Z</time>
            </trkpt>
            <trkpt lon="101.842296" lat="14.134941">
                <ele>32.341553</ele>
                <time>2007-07-01T05:00:43Z</time>
            </trkpt>
            <trkpt lon="101.842425" lat="14.134941">
                <ele>32.341553</ele>
                <time>2007-07-01T05:00:45Z</time>
            </trkpt>
            <trkpt lon="101.843262" lat="14.134769">
                <ele>32.341553</ele>
                <time>2007-07-01T05:01:00Z</time>
            </trkpt>
            <trkpt lon="101.843348" lat="14.134641">
                <ele>31.380127</ele>
                <time>2007-07-01T05:01:05Z</time>
            </trkpt>
            <trkpt lon="101.843348" lat="14.134555">
                <ele>31.380127</ele>
                <time>2007-07-01T05:01:07Z</time>
            </trkpt>
            <trkpt lon="101.843090" lat="14.133697">
                <ele>30.418823</ele>
                <time>2007-07-01T05:01:25Z</time>
            </trkpt>
            <trkpt lon="101.843026" lat="14.133525">
                <ele>29.457520</ele>
                <time>2007-07-01T05:01:28Z</time>
            </trkpt>
            <trkpt lon="101.842833" lat="14.133267">
                <ele>28.496216</ele>
                <time>2007-07-01T05:01:33Z</time>
            </trkpt>
            <trkpt lon="101.842768" lat="14.133074">
                <ele>28.976929</ele>
                <time>2007-07-01T05:01:38Z</time>
            </trkpt>
            <trkpt lon="101.842768" lat="14.133010">
                <ele>28.976929</ele>
                <time>2007-07-01T05:01:40Z</time>
            </trkpt>
            <trkpt lon="101.842961" lat="14.132731">
                <ele>28.015503</ele>
                <time>2007-07-01T05:01:46Z</time>
            </trkpt>
            <trkpt lon="101.843240" lat="14.132538">
                <ele>27.054321</ele>
                <time>2007-07-01T05:01:51Z</time>
            </trkpt>
            <trkpt lon="101.843562" lat="14.132195">
                <ele>28.015503</ele>
                <time>2007-07-01T05:02:02Z</time>
            </trkpt>
            <trkpt lon="101.843777" lat="14.131808">
                <ele>26.573608</ele>
                <time>2007-07-01T05:02:17Z</time>
            </trkpt>
            <trkpt lon="101.844056" lat="14.131336">
                <ele>26.573608</ele>
                <time>2007-07-01T05:02:35Z</time>
            </trkpt>
            <trkpt lon="101.844206" lat="14.130993">
                <ele>26.092896</ele>
                <time>2007-07-01T05:02:48Z</time>
            </trkpt>
            <trkpt lon="101.844227" lat="14.130950">
                <ele>28.976929</ele>
                <time>2007-07-01T05:03:04Z</time>
            </trkpt>
            <trkpt lon="101.844227" lat="14.130993">
                <ele>29.938110</ele>
                <time>2007-07-01T05:04:09Z</time>
            </trkpt>
            <trkpt lon="101.844227" lat="14.130950">
                <ele>31.860718</ele>
                <time>2007-07-01T05:04:42Z</time>
            </trkpt>
            <trkpt lon="101.844292" lat="14.131014">
                <ele>31.380127</ele>
                <time>2007-07-01T05:04:48Z</time>
            </trkpt>
            <trkpt lon="101.844420" lat="14.131379">
                <ele>29.457520</ele>
                <time>2007-07-01T05:05:03Z</time>
            </trkpt>
            <trkpt lon="101.844378" lat="14.131680">
                <ele>28.015503</ele>
                <time>2007-07-01T05:05:14Z</time>
            </trkpt>
            <trkpt lon="101.844249" lat="14.132195">
                <ele>26.092896</ele>
                <time>2007-07-01T05:05:27Z</time>
            </trkpt>
            <trkpt lon="101.844420" lat="14.132388">
                <ele>27.054321</ele>
                <time>2007-07-01T05:05:36Z</time>
            </trkpt>
            <trkpt lon="101.844893" lat="14.132645">
                <ele>28.015503</ele>
                <time>2007-07-01T05:05:54Z</time>
            </trkpt>
            <trkpt lon="101.845257" lat="14.132881">
                <ele>29.457520</ele>
                <time>2007-07-01T05:06:11Z</time>
            </trkpt>
            <trkpt lon="101.845622" lat="14.133031">
                <ele>29.457520</ele>
                <time>2007-07-01T05:06:23Z</time>
            </trkpt>
            <trkpt lon="101.846266" lat="14.132710">
                <ele>30.899536</ele>
                <time>2007-07-01T05:06:40Z</time>
            </trkpt>
            <trkpt lon="101.846974" lat="14.132302">
                <ele>30.418823</ele>
                <time>2007-07-01T05:06:58Z</time>
            </trkpt>
            <trkpt lon="101.847575" lat="14.131937">
                <ele>31.860718</ele>
                <time>2007-07-01T05:07:16Z</time>
            </trkpt>
            <trkpt lon="101.847982" lat="14.131701">
                <ele>31.860718</ele>
                <time>2007-07-01T05:07:29Z</time>
            </trkpt>
            <trkpt lon="101.848304" lat="14.131486">
                <ele>32.822266</ele>
                <time>2007-07-01T05:07:41Z</time>
            </trkpt>
            <trkpt lon="101.848605" lat="14.131315">
                <ele>32.341553</ele>
                <time>2007-07-01T05:07:54Z</time>
            </trkpt>
            <trkpt lon="101.848948" lat="14.131272">
                <ele>33.302856</ele>
                <time>2007-07-01T05:08:07Z</time>
            </trkpt>
            <trkpt lon="101.849184" lat="14.131551">
                <ele>32.822266</ele>
                <time>2007-07-01T05:08:19Z</time>
            </trkpt>
            <trkpt lon="101.849678" lat="14.131830">
                <ele>33.783447</ele>
                <time>2007-07-01T05:08:36Z</time>
            </trkpt>
            <trkpt lon="101.850235" lat="14.132044">
                <ele>34.264160</ele>
                <time>2007-07-01T05:08:54Z</time>
            </trkpt>
            <trkpt lon="101.850922" lat="14.131980">
                <ele>34.744873</ele>
                <time>2007-07-01T05:09:14Z</time>
            </trkpt>
            <trkpt lon="101.851673" lat="14.131808">
                <ele>35.706055</ele>
                <time>2007-07-01T05:09:34Z</time>
            </trkpt>
            <trkpt lon="101.852252" lat="14.131851">
                <ele>36.186768</ele>
                <time>2007-07-01T05:09:49Z</time>
            </trkpt>
            <trkpt lon="101.853004" lat="14.132023">
                <ele>34.744873</ele>
                <time>2007-07-01T05:10:08Z</time>
            </trkpt>
            <trkpt lon="101.853497" lat="14.132195">
                <ele>35.225464</ele>
                <time>2007-07-01T05:10:22Z</time>
            </trkpt>
            <trkpt lon="101.853862" lat="14.132645">
                <ele>34.744873</ele>
                <time>2007-07-01T05:10:38Z</time>
            </trkpt>
            <trkpt lon="101.854162" lat="14.133053">
                <ele>35.225464</ele>
                <time>2007-07-01T05:10:52Z</time>
            </trkpt>
            <trkpt lon="101.854441" lat="14.133418">
                <ele>35.225464</ele>
                <time>2007-07-01T05:11:03Z</time>
            </trkpt>
            <trkpt lon="101.854742" lat="14.133804">
                <ele>35.706055</ele>
                <time>2007-07-01T05:11:15Z</time>
            </trkpt>
            <trkpt lon="101.855257" lat="14.134212">
                <ele>35.706055</ele>
                <time>2007-07-01T05:11:30Z</time>
            </trkpt>
            <trkpt lon="101.855493" lat="14.134405">
                <ele>35.706055</ele>
                <time>2007-07-01T05:11:37Z</time>
            </trkpt>
            <trkpt lon="101.855514" lat="14.134812">
                <ele>34.744873</ele>
                <time>2007-07-01T05:11:48Z</time>
            </trkpt>
            <trkpt lon="101.855664" lat="14.135113">
                <ele>34.744873</ele>
                <time>2007-07-01T05:11:56Z</time>
            </trkpt>
            <trkpt lon="101.856072" lat="14.135799">
                <ele>34.264160</ele>
                <time>2007-07-01T05:12:15Z</time>
            </trkpt>
            <trkpt lon="101.856308" lat="14.136207">
                <ele>34.264160</ele>
                <time>2007-07-01T05:12:27Z</time>
            </trkpt>
            <trkpt lon="101.856501" lat="14.136486">
                <ele>34.744873</ele>
                <time>2007-07-01T05:12:35Z</time>
            </trkpt>
            <trkpt lon="101.856737" lat="14.136701">
                <ele>36.186768</ele>
                <time>2007-07-01T05:12:47Z</time>
            </trkpt>
            <trkpt lon="101.857038" lat="14.136636">
                <ele>36.667480</ele>
                <time>2007-07-01T05:12:55Z</time>
            </trkpt>
            <trkpt lon="101.857960" lat="14.136400">
                <ele>37.148071</ele>
                <time>2007-07-01T05:13:13Z</time>
            </trkpt>
            <trkpt lon="101.859097" lat="14.136014">
                <ele>36.186768</ele>
                <time>2007-07-01T05:13:32Z</time>
            </trkpt>
            <trkpt lon="101.859655" lat="14.135370">
                <ele>36.186768</ele>
                <time>2007-07-01T05:13:45Z</time>
            </trkpt>
            <trkpt lon="101.860557" lat="14.134684">
                <ele>35.706055</ele>
                <time>2007-07-01T05:14:02Z</time>
            </trkpt>
            <trkpt lon="101.861780" lat="14.133911">
                <ele>36.667480</ele>
                <time>2007-07-01T05:14:23Z</time>
            </trkpt>
            <trkpt lon="101.862745" lat="14.133482">
                <ele>36.667480</ele>
                <time>2007-07-01T05:14:39Z</time>
            </trkpt>
            <trkpt lon="101.863883" lat="14.133010">
                <ele>36.186768</ele>
                <time>2007-07-01T05:14:58Z</time>
            </trkpt>
            <trkpt lon="101.863947" lat="14.132988">
                <ele>36.667480</ele>
                <time>2007-07-01T05:14:59Z</time>
            </trkpt>
            <trkpt lon="101.864076" lat="14.133117">
                <ele>36.186768</ele>
                <time>2007-07-01T05:15:05Z</time>
            </trkpt>
            <trkpt lon="101.864033" lat="14.133804">
                <ele>35.706055</ele>
                <time>2007-07-01T05:15:18Z</time>
            </trkpt>
            <trkpt lon="101.864054" lat="14.135005">
                <ele>34.264160</ele>
                <time>2007-07-01T05:15:37Z</time>
            </trkpt>
            <trkpt lon="101.863947" lat="14.135306">
                <ele>34.744873</ele>
                <time>2007-07-01T05:15:42Z</time>
            </trkpt>
            <trkpt lon="101.863132" lat="14.136379">
                <ele>35.706055</ele>
                <time>2007-07-01T05:16:03Z</time>
            </trkpt>
            <trkpt lon="101.863046" lat="14.136465">
                <ele>35.706055</ele>
                <time>2007-07-01T05:16:05Z</time>
            </trkpt>
            <trkpt lon="101.862874" lat="14.136851">
                <ele>35.706055</ele>
                <time>2007-07-01T05:16:12Z</time>
            </trkpt>
            <trkpt lon="101.862767" lat="14.137108">
                <ele>35.225464</ele>
                <time>2007-07-01T05:16:17Z</time>
            </trkpt>
            <trkpt lon="101.862252" lat="14.137816">
                <ele>32.341553</ele>
                <time>2007-07-01T05:16:32Z</time>
            </trkpt>
            <trkpt lon="101.862166" lat="14.138181">
                <ele>32.341553</ele>
                <time>2007-07-01T05:16:37Z</time>
            </trkpt>
            <trkpt lon="101.861866" lat="14.138889">
                <ele>33.302856</ele>
                <time>2007-07-01T05:16:51Z</time>
            </trkpt>
            <trkpt lon="101.861801" lat="14.139168">
                <ele>33.302856</ele>
                <time>2007-07-01T05:16:57Z</time>
            </trkpt>
            <trkpt lon="101.861737" lat="14.139297">
                <ele>33.302856</ele>
                <time>2007-07-01T05:17:00Z</time>
            </trkpt>
            <trkpt lon="101.861587" lat="14.139555">
                <ele>34.264160</ele>
                <time>2007-07-01T05:17:07Z</time>
            </trkpt>
            <trkpt lon="101.861587" lat="14.139619">
                <ele>34.264160</ele>
                <time>2007-07-01T05:17:09Z</time>
            </trkpt>
            <trkpt lon="101.861587" lat="14.139748">
                <ele>33.783447</ele>
                <time>2007-07-01T05:17:17Z</time>
            </trkpt>
            <trkpt lon="101.861351" lat="14.139898">
                <ele>32.822266</ele>
                <time>2007-07-01T05:17:29Z</time>
            </trkpt>
            <trkpt lon="101.860964" lat="14.140177">
                <ele>32.341553</ele>
                <time>2007-07-01T05:17:47Z</time>
            </trkpt>
            <trkpt lon="101.860878" lat="14.140263">
                <ele>31.860718</ele>
                <time>2007-07-01T05:17:52Z</time>
            </trkpt>
            <trkpt lon="101.860836" lat="14.140348">
                <ele>32.822266</ele>
                <time>2007-07-01T05:18:05Z</time>
            </trkpt>
            <trkpt lon="101.860771" lat="14.140499">
                <ele>33.783447</ele>
                <time>2007-07-01T05:18:17Z</time>
            </trkpt>
            <trkpt lon="101.860793" lat="14.140563">
                <ele>33.783447</ele>
                <time>2007-07-01T05:18:29Z</time>
            </trkpt>
            <trkpt lon="101.861072" lat="14.140821">
                <ele>34.744873</ele>
                <time>2007-07-01T05:18:44Z</time>
            </trkpt>
            <trkpt lon="101.861479" lat="14.141400">
                <ele>35.706055</ele>
                <time>2007-07-01T05:19:03Z</time>
            </trkpt>
            <trkpt lon="101.861501" lat="14.141507">
                <ele>35.225464</ele>
                <time>2007-07-01T05:19:06Z</time>
            </trkpt>
            <trkpt lon="101.861415" lat="14.141636">
                <ele>35.225464</ele>
                <time>2007-07-01T05:19:10Z</time>
            </trkpt>
            <trkpt lon="101.860750" lat="14.142087">
                <ele>34.264160</ele>
                <time>2007-07-01T05:19:27Z</time>
            </trkpt>
            <trkpt lon="101.860342" lat="14.142387">
                <ele>35.225464</ele>
                <time>2007-07-01T05:19:39Z</time>
            </trkpt>
            <trkpt lon="101.860256" lat="14.142687">
                <ele>35.706055</ele>
                <time>2007-07-01T05:19:46Z</time>
            </trkpt>
            <trkpt lon="101.860492" lat="14.143782">
                <ele>37.148071</ele>
                <time>2007-07-01T05:20:10Z</time>
            </trkpt>
            <trkpt lon="101.860685" lat="14.144597">
                <ele>38.109375</ele>
                <time>2007-07-01T05:20:30Z</time>
            </trkpt>
            <trkpt lon="101.860793" lat="14.145305">
                <ele>39.551270</ele>
                <time>2007-07-01T05:20:50Z</time>
            </trkpt>
            <trkpt lon="101.860900" lat="14.145648">
                <ele>41.473999</ele>
                <time>2007-07-01T05:21:02Z</time>
            </trkpt>
            <trkpt lon="101.861286" lat="14.145713">
                <ele>41.954712</ele>
                <time>2007-07-01T05:21:14Z</time>
            </trkpt>
            <trkpt lon="101.861329" lat="14.145734">
                <ele>41.954712</ele>
                <time>2007-07-01T05:21:15Z</time>
            </trkpt>
            <trkpt lon="101.861544" lat="14.145949">
                <ele>41.954712</ele>
                <time>2007-07-01T05:21:23Z</time>
            </trkpt>
            <trkpt lon="101.861737" lat="14.146421">
                <ele>45.799927</ele>
                <time>2007-07-01T05:21:40Z</time>
            </trkpt>
            <trkpt lon="101.861951" lat="14.146893">
                <ele>47.241821</ele>
                <time>2007-07-01T05:21:58Z</time>
            </trkpt>
            <trkpt lon="101.862102" lat="14.147193">
                <ele>49.645264</ele>
                <time>2007-07-01T05:22:18Z</time>
            </trkpt>
            <trkpt lon="101.862230" lat="14.147472">
                <ele>50.606567</ele>
                <time>2007-07-01T05:22:38Z</time>
            </trkpt>
            <trkpt lon="101.862359" lat="14.147837">
                <ele>54.932373</ele>
                <time>2007-07-01T05:23:03Z</time>
            </trkpt>
            <trkpt lon="101.862381" lat="14.147966">
                <ele>55.413086</ele>
                <time>2007-07-01T05:23:18Z</time>
            </trkpt>
            <trkpt lon="101.862402" lat="14.147966">
                <ele>56.374512</ele>
                <time>2007-07-01T05:23:39Z</time>
            </trkpt>
            <trkpt lon="101.862359" lat="14.147837">
                <ele>55.413086</ele>
                <time>2007-07-01T05:23:44Z</time>
            </trkpt>
            <trkpt lon="101.862037" lat="14.147065">
                <ele>50.125977</ele>
                <time>2007-07-01T05:23:58Z</time>
            </trkpt>
            <trkpt lon="101.861930" lat="14.146850">
                <ele>50.125977</ele>
                <time>2007-07-01T05:24:01Z</time>
            </trkpt>
            <trkpt lon="101.861608" lat="14.146163">
                <ele>45.319214</ele>
                <time>2007-07-01T05:24:13Z</time>
            </trkpt>
            <trkpt lon="101.861522" lat="14.145992">
                <ele>44.358032</ele>
                <time>2007-07-01T05:24:16Z</time>
            </trkpt>
            <trkpt lon="101.861308" lat="14.145820">
                <ele>44.358032</ele>
                <time>2007-07-01T05:24:21Z</time>
            </trkpt>
            <trkpt lon="101.861029" lat="14.145777">
                <ele>43.396606</ele>
                <time>2007-07-01T05:24:26Z</time>
            </trkpt>
            <trkpt lon="101.860771" lat="14.145412">
                <ele>40.993408</ele>
                <time>2007-07-01T05:24:34Z</time>
            </trkpt>
            <trkpt lon="101.860836" lat="14.145305">
                <ele>40.032104</ele>
                <time>2007-07-01T05:24:36Z</time>
            </trkpt>
            <trkpt lon="101.860921" lat="14.145219">
                <ele>40.032104</ele>
                <time>2007-07-01T05:24:38Z</time>
            </trkpt>
            <trkpt lon="101.861157" lat="14.145005">
                <ele>40.032104</ele>
                <time>2007-07-01T05:24:45Z</time>
            </trkpt>
            <trkpt lon="101.861351" lat="14.144940">
                <ele>39.551270</ele>
                <time>2007-07-01T05:24:49Z</time>
            </trkpt>
            <trkpt lon="101.861587" lat="14.144940">
                <ele>39.070679</ele>
                <time>2007-07-01T05:24:54Z</time>
            </trkpt>
            <trkpt lon="101.861780" lat="14.144855">
                <ele>39.551270</ele>
                <time>2007-07-01T05:24:59Z</time>
            </trkpt>
            <trkpt lon="101.862080" lat="14.144468">
                <ele>39.070679</ele>
                <time>2007-07-01T05:25:08Z</time>
            </trkpt>
            <trkpt lon="101.862938" lat="14.144018">
                <ele>38.590088</ele>
                <time>2007-07-01T05:25:23Z</time>
            </trkpt>
            <trkpt lon="101.863968" lat="14.143610">
                <ele>36.667480</ele>
                <time>2007-07-01T05:25:39Z</time>
            </trkpt>
            <trkpt lon="101.865256" lat="14.142966">
                <ele>35.225464</ele>
                <time>2007-07-01T05:25:58Z</time>
            </trkpt>
            <trkpt lon="101.865964" lat="14.142344">
                <ele>37.148071</ele>
                <time>2007-07-01T05:26:10Z</time>
            </trkpt>
            <trkpt lon="101.866436" lat="14.141915">
                <ele>36.667480</ele>
                <time>2007-07-01T05:26:21Z</time>
            </trkpt>
            <trkpt lon="101.866715" lat="14.141679">
                <ele>36.667480</ele>
                <time>2007-07-01T05:26:34Z</time>
            </trkpt>
            <trkpt lon="101.866736" lat="14.141657">
                <ele>39.551270</ele>
                <time>2007-07-01T05:26:48Z</time>
            </trkpt>
            <trkpt lon="101.866736" lat="14.141722">
                <ele>41.473999</ele>
                <time>2007-07-01T05:27:23Z</time>
            </trkpt>
            <trkpt lon="101.866736" lat="14.141743">
                <ele>44.358032</ele>
                <time>2007-07-01T06:27:01Z</time>
            </trkpt>
        </trkseg>
    </trk>
</gpx>